Time;durP1;ratioP1;P1;durP2;ratioP2;P2;SDS_P1;SDS_P2;PMS_P1;PMS_P2;Temp;Humidity;BMP_temperature;BMP_pressure;BME280_temperature;BME280_humidity;BME280_pressure;Samples;Min_cycle;Max_cycle;Signal;HPM_P1;HPM_P2
2021/01/21 00:02:54;;;;;;;14.60;7.00;;;;;;;;;;5134608;28;20046;-76
2021/01/21 00:05:58;;;;;;;14.20;5.72;;;;;;;;;;5134028;28;20042;-76
2021/01/21 00:09:02;;;;;;;15.13;6.03;;;;;;;;;;5134066;28;20038;-77
2021/01/21 00:12:07;;;;;;;16.00;5.93;;;;;;;;;;5133515;28;20043;-76
2021/01/21 00:15:11;;;;;;;17.67;6.00;;;;;;;;;;5133549;27;20043;-76
2021/01/21 00:18:16;;;;;;;19.95;6.20;;;;;;;;;;5136813;27;20066;-76
2021/01/21 00:21:20;;;;;;;12.38;5.20;;;;;;;;;;5137131;27;20047;-76
2021/01/21 00:24:24;;;;;;;19.10;5.07;;;;;;;;;;5137393;27;20043;-76
2021/01/21 00:27:47;;;;;;;14.77;4.70;;;;;;;;;;5136896;27;20042;-75
2021/01/21 00:31:10;;;;;;;19.23;6.13;;;;;;;;;;5137203;27;20398;-77
2021/01/21 00:34:14;;;;;;;11.38;4.80;;;;;;;;;;5112546;27;20039;-77
2021/01/21 00:37:18;;;;;;;17.25;5.20;;;;;;;;;;5136636;27;20051;-77
2021/01/21 00:40:23;;;;;;;14.18;5.05;;;;;;;;;;5137171;27;20042;-77
2021/01/21 00:43:27;;;;;;;8.50;4.95;;;;;;;;;;5137304;27;20042;-76
2021/01/21 00:46:32;;;;;;;13.18;5.13;;;;;;;;;;5124463;27;20043;-78
2021/01/21 00:49:36;;;;;;;18.75;6.50;;;;;;;;;;5136827;27;20043;-76
2021/01/21 00:52:41;;;;;;;22.38;5.68;;;;;;;;;;5136629;27;20031;-75
2021/01/21 00:55:45;;;;;;;11.95;4.85;;;;;;;;;;5137136;27;20039;-76
2021/01/21 00:58:50;;;;;;;11.77;4.97;;;;;;;;;;5124218;27;20506;-76
2021/01/21 01:01:54;;;;;;;10.07;4.28;;;;;;;;;;5136689;27;20386;-76
2021/01/21 01:05:00;;;;;;;14.07;4.85;;;;;;;;;;5123964;27;20050;-77
2021/01/21 01:08:05;;;;;;;13.85;4.93;;;;;;;;;;5124161;27;20039;-78
2021/01/21 01:11:09;;;;;;;9.38;4.47;;;;;;;;;;5101746;28;20047;-77
2021/01/21 01:14:14;;;;;;;14.30;4.88;;;;;;;;;;5114626;28;20040;-77
2021/01/21 01:17:18;;;;;;;12.05;3.42;;;;;;;;;;5101828;28;20047;-77
2021/01/21 01:20:28;;;;;;;12.10;4.32;;;;;;;;;;5113719;28;20046;-77
2021/01/21 01:23:32;;;;;;;10.40;3.70;;;;;;;;;;5114184;28;20047;-77
2021/01/21 01:26:37;;;;;;;7.93;3.63;;;;;;;;;;5114090;28;20442;-77
2021/01/21 01:29:49;;;;;;;8.18;3.53;;;;;;;;;;5113110;28;20380;-77
2021/01/21 01:32:54;;;;;;;10.55;4.20;;;;;;;;;;5114307;28;20031;-77
2021/01/21 01:35:59;;;;;;;19.92;4.38;;;;;;;;;;5101618;28;20514;-77
2021/01/21 01:39:03;;;;;;;13.48;4.13;;;;;;;;;;5113007;28;20039;-77
2021/01/21 01:42:22;;;;;;;9.00;3.78;;;;;;;;;;5113245;28;20040;-77
2021/01/21 01:45:30;;;;;;;9.63;3.80;;;;;;;;;;5112924;28;20487;-77
2021/01/21 01:48:35;;;;;;;14.70;3.53;;;;;;;;;;5113066;28;20043;-77
2021/01/21 01:51:45;;;;;;;8.57;3.83;;;;;;;;;;5101689;28;20023;-77
2021/01/21 01:54:51;;;;;;;9.20;3.20;;;;;;;;;;5112665;28;20032;-77
2021/01/21 01:58:14;;;;;;;17.25;2.70;;;;;;;;;;5112567;28;20475;-78
2021/01/21 02:01:25;;;;;;;12.23;2.90;;;;;;;;;;5113013;28;20036;-77
2021/01/21 02:04:29;;;;;;;8.35;2.08;;;;;;;;;;5112979;28;20044;-77
2021/01/21 02:07:48;;;;;;;6.28;2.03;;;;;;;;;;5112774;28;20036;-77
2021/01/21 02:10:56;;;;;;;11.52;2.33;;;;;;;;;;5112273;28;20055;-77
2021/01/21 02:14:02;;;;;;;10.80;1.85;;;;;;;;;;5100823;28;20046;-77
2021/01/21 02:17:11;;;;;;;10.05;2.20;;;;;;;;;;5112240;28;20047;-77
2021/01/21 02:20:46;;;;;;;10.05;2.00;;;;;;;;;;5112523;28;20035;-77
2021/01/21 02:24:03;;;;;;;11.95;1.67;;;;;;;;;;5112176;28;20043;-77
2021/01/21 02:27:16;;;;;;;11.80;2.40;;;;;;;;;;5112419;28;20035;-77
2021/01/21 02:30:32;;;;;;;13.57;2.25;;;;;;;;;;5112059;28;20031;-77
2021/01/21 02:33:53;;;;;;;9.48;1.75;;;;;;;;;;5112116;28;20039;-77
2021/01/21 02:36:59;;;;;;;9.60;1.98;;;;;;;;;;5112904;28;20665;-77
2021/01/21 02:40:22;;;;;;;9.00;1.88;;;;;;;;;;5112960;28;20028;-77
2021/01/21 02:43:53;;;;;;;11.30;3.05;;;;;;;;;;5112742;28;20032;-77
2021/01/21 02:46:59;;;;;;;13.30;2.30;;;;;;;;;;5112837;28;20035;-77
2021/01/21 02:50:05;;;;;;;12.10;2.35;;;;;;;;;;5111646;28;20396;-77
2021/01/21 02:53:10;;;;;;;11.82;2.40;;;;;;;;;;5112422;28;20036;-77
2021/01/21 02:56:16;;;;;;;8.30;2.47;;;;;;;;;;5111949;28;20503;-77
2021/01/21 02:59:32;;;;;;;10.90;2.50;;;;;;;;;;5111629;28;20043;-77
2021/01/21 03:02:41;;;;;;;10.15;2.03;;;;;;;;;;5100309;28;20031;-77
2021/01/21 03:05:50;;;;;;;14.68;2.35;;;;;;;;;;5111398;28;20028;-77
2021/01/21 03:08:59;;;;;;;12.00;2.42;;;;;;;;;;5112915;27;20036;-77
2021/01/21 03:12:16;;;;;;;15.25;2.83;;;;;;;;;;5119900;27;20054;-77
2021/01/21 03:15:22;;;;;;;8.90;2.22;;;;;;;;;;5132684;27;20031;-77
2021/01/21 03:18:37;;;;;;;11.73;2.72;;;;;;;;;;5119933;27;20047;-77
2021/01/21 03:21:41;;;;;;;12.70;2.00;;;;;;;;;;5119784;27;20378;-77
2021/01/21 03:24:53;;;;;;;19.42;3.00;;;;;;;;;;5119808;27;20038;-77
2021/01/21 03:28:08;;;;;;;10.48;2.40;;;;;;;;;;5120047;27;20028;-77
2021/01/21 03:31:14;;;;;;;7.45;2.03;;;;;;;;;;5120199;27;20035;-77
2021/01/21 03:34:19;;;;;;;8.40;2.70;;;;;;;;;;5119592;27;20031;-77
2021/01/21 03:37:32;;;;;;;13.55;3.00;;;;;;;;;;5119592;27;20375;-77
2021/01/21 03:40:40;;;;;;;10.32;2.72;;;;;;;;;;5119555;27;20039;-77
2021/01/21 03:43:44;;;;;;;12.00;2.97;;;;;;;;;;5132494;27;20375;-77
2021/01/21 03:46:56;;;;;;;6.75;2.80;;;;;;;;;;5132562;27;20039;-77
2021/01/21 03:50:18;;;;;;;9.35;2.30;;;;;;;;;;5110485;27;20039;-77
2021/01/21 03:53:24;;;;;;;14.60;2.78;;;;;;;;;;5119612;27;20165;-77
2021/01/21 03:56:50;;;;;;;10.45;3.00;;;;;;;;;;5119556;28;20530;-77
2021/01/21 03:59:58;;;;;;;9.27;2.70;;;;;;;;;;5119526;28;20039;-77
2021/01/21 04:03:02;;;;;;;8.00;2.45;;;;;;;;;;5119341;28;20043;-77
2021/01/21 04:06:18;;;;;;;10.82;2.40;;;;;;;;;;5119344;28;20035;-77
2021/01/21 04:09:25;;;;;;;7.88;2.65;;;;;;;;;;5119358;28;20043;-77
2021/01/21 04:12:41;;;;;;;16.50;3.40;;;;;;;;;;5119395;28;20040;-77
2021/01/21 04:15:46;;;;;;;9.70;2.65;;;;;;;;;;5119303;28;20039;-77
2021/01/21 04:18:51;;;;;;;10.23;3.13;;;;;;;;;;5119153;28;20043;-77
2021/01/21 04:21:58;;;;;;;18.05;3.88;;;;;;;;;;5119142;28;20039;-77
2021/01/21 04:25:05;;;;;;;9.25;2.88;;;;;;;;;;5119155;28;20600;-77
2021/01/21 04:28:18;;;;;;;10.80;2.72;;;;;;;;;;5119340;28;20035;-77
2021/01/21 04:31:23;;;;;;;11.48;2.60;;;;;;;;;;5107503;28;20035;-77
2021/01/21 04:34:27;;;;;;;14.07;3.63;;;;;;;;;;5119113;28;20038;-77
2021/01/21 04:37:33;;;;;;;12.55;2.88;;;;;;;;;;5119064;28;20054;-77
2021/01/21 04:40:48;;;;;;;14.30;3.15;;;;;;;;;;5119507;28;20035;-77
2021/01/21 04:44:18;;;;;;;13.70;2.88;;;;;;;;;;5132013;28;20039;-77
2021/01/21 04:47:31;;;;;;;11.20;3.97;;;;;;;;;;5108729;28;20039;-77
2021/01/21 04:50:55;;;;;;;12.85;3.55;;;;;;;;;;5121806;28;20043;-77
2021/01/21 04:54:05;;;;;;;11.25;3.58;;;;;;;;;;5119019;28;20040;-77
2021/01/21 04:57:39;;;;;;;16.00;3.80;;;;;;;;;;5119009;28;20058;-77
2021/01/21 05:00:52;;;;;;;11.50;2.80;;;;;;;;;;5108710;27;20031;-77
2021/01/21 05:03:57;;;;;;;15.73;3.20;;;;;;;;;;5122843;27;20041;-77
2021/01/21 05:07:40;;;;;;;12.52;3.72;;;;;;;;;;5135428;27;20031;-77
2021/01/21 05:10:46;;;;;;;12.55;3.95;;;;;;;;;;5110691;27;20410;-77
2021/01/21 05:13:58;;;;;;;14.15;3.83;;;;;;;;;;5122473;27;20545;-77
2021/01/21 05:17:21;;;;;;;14.02;3.90;;;;;;;;;;5135136;27;20410;-77
2021/01/21 05:20:46;;;;;;;9.57;3.67;;;;;;;;;;5119481;27;20498;-77
2021/01/21 05:24:11;;;;;;;10.95;4.25;;;;;;;;;;5135143;27;20043;-77
2021/01/21 05:27:47;;;;;;;14.45;3.50;;;;;;;;;;5126802;27;20510;-78
2021/01/21 05:31:23;;;;;;;10.20;3.80;;;;;;;;;;5132946;27;20046;-77
2021/01/21 05:34:31;;;;;;;12.00;3.58;;;;;;;;;;5110597;27;20031;-77
2021/01/21 05:37:48;;;;;;;12.85;3.60;;;;;;;;;;5121818;27;20124;-77
2021/01/21 05:41:11;;;;;;;13.27;3.42;;;;;;;;;;5134418;27;20031;-77
2021/01/21 05:44:35;;;;;;;11.18;3.70;;;;;;;;;;5134613;27;20043;-77
2021/01/21 05:47:59;;;;;;;14.55;3.88;;;;;;;;;;5121703;27;20035;-77
2021/01/21 05:51:05;;;;;;;8.13;3.45;;;;;;;;;;5121918;27;20031;-77
2021/01/21 05:54:09;;;;;;;10.57;4.03;;;;;;;;;;5121901;27;20031;-77
2021/01/21 05:57:26;;;;;;;12.52;4.78;;;;;;;;;;5121357;27;20397;-77
2021/01/21 06:00:32;;;;;;;11.80;4.22;;;;;;;;;;5134238;27;20046;-77
2021/01/21 06:03:43;;;;;;;17.63;4.50;;;;;;;;;;5121695;27;20105;-77
2021/01/21 06:06:59;;;;;;;16.98;7.55;;;;;;;;;;5121499;27;20513;-77
2021/01/21 06:10:03;;;;;;;12.93;7.10;;;;;;;;;;5121187;27;20047;-77
2021/01/21 06:13:07;;;;;;;15.52;6.85;;;;;;;;;;5120234;27;20065;-78
2021/01/21 06:16:12;;;;;;;14.85;6.88;;;;;;;;;;5134031;27;20047;-77
2021/01/21 06:19:16;;;;;;;18.80;7.20;;;;;;;;;;5134022;27;20047;-77
2021/01/21 06:22:29;;;;;;;15.35;7.50;;;;;;;;;;5121627;27;20043;-77
2021/01/21 06:25:40;;;;;;;31.45;14.35;;;;;;;;;;5134025;27;20035;-77
2021/01/21 06:28:46;;;;;;;16.83;9.50;;;;;;;;;;5133842;27;20038;-77
2021/01/21 06:31:50;;;;;;;20.85;8.80;;;;;;;;;;5133782;27;20042;-77
2021/01/21 06:34:57;;;;;;;21.90;6.78;;;;;;;;;;5133618;27;20046;-77
2021/01/21 06:38:05;;;;;;;24.17;9.10;;;;;;;;;;5120498;27;20399;-75
2021/01/21 06:41:20;;;;;;;22.25;11.07;;;;;;;;;;5133569;27;20584;-75
2021/01/21 06:44:24;;;;;;;25.23;8.55;;;;;;;;;;5133429;27;20046;-74
2021/01/21 06:47:28;;;;;;;16.02;7.10;;;;;;;;;;5120377;27;20046;-74
2021/01/21 06:50:33;;;;;;;19.70;8.23;;;;;;;;;;5133498;27;20386;-75
2021/01/21 06:53:44;;;;;;;16.17;8.65;;;;;;;;;;5133062;27;20035;-74
2021/01/21 06:56:48;;;;;;;19.63;8.53;;;;;;;;;;5133111;27;20052;-73
2021/01/21 06:59:55;;;;;;;20.40;9.32;;;;;;;;;;5120802;27;20039;-73
2021/01/21 07:03:00;;;;;;;24.35;10.38;;;;;;;;;;5133330;27;20035;-73
2021/01/21 07:06:04;;;;;;;21.17;8.73;;;;;;;;;;5133035;27;20046;-73
2021/01/21 07:09:08;;;;;;;18.88;9.95;;;;;;;;;;5132503;27;20054;-73
2021/01/21 07:12:14;;;;;;;23.08;9.52;;;;;;;;;;5132526;27;20060;-73
2021/01/21 07:15:18;;;;;;;18.90;8.02;;;;;;;;;;5132613;27;20497;-74
2021/01/21 07:18:24;;;;;;;16.85;7.75;;;;;;;;;;5132374;27;20051;-74
2021/01/21 07:21:31;;;;;;;28.23;9.15;;;;;;;;;;5132921;27;20027;-74
2021/01/21 07:24:35;;;;;;;19.02;8.35;;;;;;;;;;5132297;27;20031;-75
2021/01/21 07:27:40;;;;;;;18.27;7.88;;;;;;;;;;5132614;27;20035;-76
2021/01/21 07:30:47;;;;;;;22.38;9.23;;;;;;;;;;5131914;27;20027;-77
2021/01/21 07:34:13;;;;;;;19.73;9.32;;;;;;;;;;5118862;27;20038;-75
2021/01/21 07:37:22;;;;;;;19.58;8.90;;;;;;;;;;5132122;27;20043;-74
2021/01/21 07:40:45;;;;;;;16.52;6.93;;;;;;;;;;5132250;27;20035;-73
2021/01/21 07:43:56;;;;;;;16.27;6.65;;;;;;;;;;5132359;27;20043;-75
2021/01/21 07:47:19;;;;;;;22.30;7.43;;;;;;;;;;5132165;27;20506;-72
2021/01/21 07:50:29;;;;;;;17.65;8.43;;;;;;;;;;5132156;27;20039;-76
2021/01/21 07:53:34;;;;;;;19.02;8.80;;;;;;;;;;5131815;27;20040;-73
2021/01/21 07:56:41;;;;;;;17.58;9.57;;;;;;;;;;5132350;27;20043;-77
2021/01/21 07:59:58;;;;;;;18.17;6.90;;;;;;;;;;5132236;28;20043;-76
2021/01/21 08:03:03;;;;;;;16.90;7.20;;;;;;;;;;5119225;28;20041;-77
2021/01/21 08:06:08;;;;;;;21.13;7.68;;;;;;;;;;5132251;28;20398;-77
2021/01/21 08:09:12;;;;;;;17.20;7.78;;;;;;;;;;5131810;28;20044;-81
2021/01/21 08:12:16;;;;;;;18.42;8.88;;;;;;;;;;5131103;28;20035;-82
2021/01/21 08:15:21;;;;;;;16.52;7.10;;;;;;;;;;5130887;28;20039;-78
2021/01/21 08:18:26;;;;;;;15.38;6.00;;;;;;;;;;5131854;28;20051;-81
2021/01/21 08:21:31;;;;;;;15.35;5.97;;;;;;;;;;5131824;28;20038;-79
2021/01/21 08:24:54;;;;;;;13.25;6.07;;;;;;;;;;5119341;28;20399;-81
2021/01/21 08:27:58;;;;;;;17.05;6.10;;;;;;;;;;5131855;28;20040;-81
2021/01/21 08:31:02;;;;;;;15.48;5.63;;;;;;;;;;5107213;28;20406;-80
2021/01/21 08:34:08;;;;;;;16.70;5.63;;;;;;;;;;5131738;28;20395;-80
2021/01/21 08:37:13;;;;;;;15.40;5.78;;;;;;;;;;5133879;27;20039;-78
2021/01/21 08:40:18;;;;;;;16.33;5.55;;;;;;;;;;5134934;27;20058;-79
2021/01/21 08:43:23;;;;;;;15.52;6.60;;;;;;;;;;5135523;27;20042;-79
2021/01/21 08:46:29;;;;;;;17.98;5.97;;;;;;;;;;5135647;27;20043;-79
2021/01/21 08:49:35;;;;;;;20.23;6.40;;;;;;;;;;5134448;27;20514;-78
2021/01/21 08:52:59;;;;;;;17.60;6.88;;;;;;;;;;5122994;27;20043;-78
2021/01/21 08:56:13;;;;;;;22.13;7.35;;;;;;;;;;5135368;27;20052;-78
2021/01/21 08:59:30;;;;;;;12.93;4.78;;;;;;;;;;5135051;27;20047;-79
2021/01/21 09:02:42;;;;;;;16.50;5.18;;;;;;;;;;5122947;27;20050;-79
2021/01/21 09:05:57;;;;;;;11.50;5.07;;;;;;;;;;5135165;27;20043;-80
2021/01/21 09:09:02;;;;;;;11.20;4.57;;;;;;;;;;5135062;27;20035;-80
2021/01/21 09:12:20;;;;;;;18.02;6.25;;;;;;;;;;5135006;27;20051;-78
2021/01/21 09:15:24;;;;;;;14.60;5.88;;;;;;;;;;5135224;27;20039;-78
2021/01/21 09:18:45;;;;;;;19.30;5.57;;;;;;;;;;5134700;27;20060;-79
2021/01/21 09:22:17;;;;;;;14.75;5.18;;;;;;;;;;5135096;27;20031;-80
2021/01/21 09:25:40;;;;;;;17.10;6.07;;;;;;;;;;5134691;27;20035;-79
2021/01/21 09:28:55;;;;;;;19.80;5.50;;;;;;;;;;5134869;27;20497;-80
2021/01/21 09:31:59;;;;;;;18.40;5.50;;;;;;;;;;5134574;27;20041;-81
2021/01/21 09:35:19;;;;;;;18.30;4.53;;;;;;;;;;5134886;27;20043;-79
2021/01/21 09:38:24;;;;;;;12.07;3.50;;;;;;;;;;5121767;27;20043;-80
2021/01/21 09:41:28;;;;;;;15.70;3.80;;;;;;;;;;5134840;27;20504;-79
2021/01/21 09:44:32;;;;;;;13.20;3.95;;;;;;;;;;5134658;27;20043;-79
2021/01/21 09:47:37;;;;;;;10.02;3.50;;;;;;;;;;5134223;27;20051;-80
2021/01/21 09:50:41;;;;;;;9.05;3.60;;;;;;;;;;5134337;27;20031;-79
2021/01/21 09:53:46;;;;;;;11.05;3.67;;;;;;;;;;5134525;27;20494;-78
2021/01/21 09:56:52;;;;;;;14.43;4.40;;;;;;;;;;5134314;27;20039;-79
2021/01/21 09:59:56;;;;;;;18.45;5.00;;;;;;;;;;5134113;27;20061;-78
2021/01/21 10:03:01;;;;;;;21.08;4.45;;;;;;;;;;5133971;27;20032;-80
2021/01/21 10:06:06;;;;;;;8.85;3.83;;;;;;;;;;5121496;27;20035;-82
2021/01/21 10:09:10;;;;;;;10.63;3.55;;;;;;;;;;5133406;27;20035;-80
2021/01/21 10:12:14;;;;;;;18.33;3.90;;;;;;;;;;5121257;27;20505;-80
2021/01/21 10:15:19;;;;;;;16.77;4.38;;;;;;;;;;5133773;27;20425;-79
2021/01/21 10:18:23;;;;;;;13.00;3.67;;;;;;;;;;5133637;27;20055;-80
2021/01/21 10:21:27;;;;;;;14.63;4.07;;;;;;;;;;5133688;27;20043;-80
2021/01/21 10:24:33;;;;;;;18.00;4.60;;;;;;;;;;5133511;27;20043;-79
2021/01/21 10:27:37;;;;;;;13.90;4.82;;;;;;;;;;5133559;27;20039;-79
2021/01/21 10:30:42;;;;;;;9.27;3.80;;;;;;;;;;5121054;27;20050;-79
2021/01/21 10:33:46;;;;;;;17.15;3.35;;;;;;;;;;5133495;27;20035;-80
2021/01/21 10:36:54;;;;;;;12.93;3.58;;;;;;;;;;5133541;27;20047;-80
2021/01/21 10:39:58;;;;;;;8.55;3.05;;;;;;;;;;5133061;27;20050;-79
2021/01/21 10:43:02;;;;;;;20.17;3.15;;;;;;;;;;5133405;27;20035;-79
2021/01/21 10:46:10;;;;;;;10.38;2.20;;;;;;;;;;5133228;27;20027;-81
2021/01/21 10:49:14;;;;;;;18.33;2.72;;;;;;;;;;5132939;27;20054;-81
2021/01/21 10:52:19;;;;;;;16.20;2.40;;;;;;;;;;5133065;27;20031;-79
2021/01/21 10:55:23;;;;;;;11.43;2.15;;;;;;;;;;5133556;27;20045;-79
2021/01/21 10:58:27;;;;;;;17.80;2.50;;;;;;;;;;5133104;27;20054;-80
2021/01/21 11:01:32;;;;;;;12.00;2.55;;;;;;;;;;5134020;27;20027;-79
2021/01/21 11:04:37;;;;;;;10.02;2.42;;;;;;;;;;5133749;27;20478;-80
2021/01/21 11:07:41;;;;;;;5.88;2.20;;;;;;;;;;5121436;27;20039;-79
2021/01/21 11:10:45;;;;;;;13.50;2.40;;;;;;;;;;5132758;27;20047;-78
2021/01/21 11:13:49;;;;;;;20.48;2.20;;;;;;;;;;5133050;27;20047;-80
2021/01/21 11:16:54;;;;;;;8.43;2.25;;;;;;;;;;5132836;27;20027;-81
2021/01/21 11:19:58;;;;;;;9.52;1.52;;;;;;;;;;5120194;27;20375;-81
2021/01/21 11:23:02;;;;;;;11.98;2.83;;;;;;;;;;5133041;27;20031;-80
2021/01/21 11:26:07;;;;;;;8.27;2.95;;;;;;;;;;5133467;27;20035;-81
2021/01/21 11:29:11;;;;;;;18.58;2.20;;;;;;;;;;5132736;27;20039;-78
2021/01/21 11:32:15;;;;;;;8.25;2.00;;;;;;;;;;5119617;27;20639;-72
2021/01/21 11:35:20;;;;;;;13.23;2.67;;;;;;;;;;5131999;27;20039;-74
2021/01/21 11:38:27;;;;;;;12.00;2.30;;;;;;;;;;5130562;27;20058;-71
2021/01/21 11:41:31;;;;;;;8.48;2.08;;;;;;;;;;5119404;27;20039;-73
2021/01/21 11:44:35;;;;;;;15.45;3.70;;;;;;;;;;5131927;27;20047;-74
2021/01/21 11:47:43;;;;;;;15.15;3.10;;;;;;;;;;5131706;27;20053;-74
2021/01/21 11:50:47;;;;;;;9.27;2.45;;;;;;;;;;5132120;27;20617;-73
2021/01/21 11:53:51;;;;;;;21.60;6.40;;;;;;;;;;5132125;27;20035;-71
2021/01/21 11:56:59;;;;;;;7.75;3.00;;;;;;;;;;5119574;27;20126;-72
2021/01/21 12:00:10;;;;;;;27.10;12.38;;;;;;;;;;5132153;28;20047;-73
2021/01/21 12:03:15;;;;;;;14.82;3.20;;;;;;;;;;5131968;28;20038;-73
2021/01/21 12:06:19;;;;;;;16.92;2.50;;;;;;;;;;5131930;28;20027;-73
2021/01/21 12:09:25;;;;;;;9.65;2.72;;;;;;;;;;5132106;28;20031;-80
2021/01/21 12:12:29;;;;;;;14.73;3.40;;;;;;;;;;5134461;27;20038;-81
2021/01/21 12:15:34;;;;;;;12.05;2.58;;;;;;;;;;5135391;27;20513;-80
2021/01/21 12:18:38;;;;;;;8.65;3.03;;;;;;;;;;5136166;27;20055;-80
2021/01/21 12:21:42;;;;;;;7.82;2.70;;;;;;;;;;5136186;27;20027;-79
2021/01/21 12:24:47;;;;;;;13.70;2.88;;;;;;;;;;5136166;27;20043;-79
2021/01/21 12:27:51;;;;;;;16.48;2.78;;;;;;;;;;5135821;27;20035;-79
2021/01/21 12:30:56;;;;;;;10.75;2.70;;;;;;;;;;5136004;27;20495;-79
2021/01/21 12:34:00;;;;;;;51.85;31.50;;;;;;;;;;5136198;27;20043;-83
2021/01/21 12:37:05;;;;;;;16.50;4.32;;;;;;;;;;5135552;27;20623;-78
2021/01/21 12:40:10;;;;;;;11.65;2.47;;;;;;;;;;5135848;27;20408;-77
2021/01/21 12:43:14;;;;;;;14.73;2.03;;;;;;;;;;5135633;27;20034;-79
2021/01/21 12:46:19;;;;;;;11.25;3.45;;;;;;;;;;5135662;27;20062;-78
2021/01/21 12:49:23;;;;;;;61.92;39.25;;;;;;;;;;5135564;27;20042;-75
2021/01/21 12:52:28;;;;;;;10.63;3.05;;;;;;;;;;5135542;27;20066;-79
2021/01/21 12:55:33;;;;;;;10.05;2.00;;;;;;;;;;5135664;27;20158;-78
2021/01/21 12:58:37;;;;;;;10.20;2.08;;;;;;;;;;5135428;27;20043;-78
2021/01/21 13:01:42;;;;;;;19.75;8.48;;;;;;;;;;5122957;27;20090;-73
2021/01/21 13:04:47;;;;;;;68.90;42.28;;;;;;;;;;5135140;27;20046;-76
2021/01/21 13:07:51;;;;;;;14.52;3.33;;;;;;;;;;5135116;27;20498;-76
2021/01/21 13:10:55;;;;;;;9.95;2.17;;;;;;;;;;5110514;27;20404;-81
2021/01/21 13:14:00;;;;;;;11.82;2.70;;;;;;;;;;5135174;27;20035;-77
2021/01/21 13:17:04;;;;;;;9.02;2.97;;;;;;;;;;5135298;27;20065;-78
2021/01/21 13:20:09;;;;;;;14.95;3.03;;;;;;;;;;5135223;27;20494;-78
2021/01/21 13:23:13;;;;;;;10.75;2.83;;;;;;;;;;5121508;27;20042;-80
2021/01/21 13:26:17;;;;;;;93.38;6.78;;;;;;;;;;5122336;27;20039;-78
2021/01/21 13:29:21;;;;;;;15.35;2.35;;;;;;;;;;5135092;27;20375;-78
2021/01/21 13:32:26;;;;;;;8.45;2.22;;;;;;;;;;5135268;27;20042;-78
2021/01/21 13:35:30;;;;;;;13.52;2.90;;;;;;;;;;5134873;27;20035;-76
2021/01/21 13:38:35;;;;;;;12.98;3.53;;;;;;;;;;5134586;27;20398;-78
2021/01/21 13:41:39;;;;;;;13.80;3.08;;;;;;;;;;5121973;27;20035;-77
2021/01/21 13:44:45;;;;;;;15.98;3.22;;;;;;;;;;5134689;27;20039;-79
2021/01/21 13:47:49;;;;;;;16.48;2.78;;;;;;;;;;5121890;27;20035;-78
2021/01/21 13:50:54;;;;;;;13.25;3.80;;;;;;;;;;5134847;27;20049;-78
2021/01/21 13:53:59;;;;;;;16.15;2.90;;;;;;;;;;5134583;27;20390;-78
2021/01/21 13:57:03;;;;;;;17.67;2.75;;;;;;;;;;5134303;27;20047;-78
2021/01/21 14:00:08;;;;;;;18.05;2.90;;;;;;;;;;5134720;27;20043;-78
2021/01/21 14:03:12;;;;;;;18.50;2.53;;;;;;;;;;5134193;27;20027;-78
2021/01/21 14:06:16;;;;;;;12.90;3.05;;;;;;;;;;5134114;27;20042;-79
2021/01/21 14:09:20;;;;;;;12.02;3.30;;;;;;;;;;5133983;27;20038;-78
2021/01/21 14:12:25;;;;;;;16.90;4.18;;;;;;;;;;5134108;27;20046;-78
2021/01/21 14:15:29;;;;;;;21.20;3.22;;;;;;;;;;5133989;27;20035;-78
2021/01/21 14:18:34;;;;;;;14.32;3.55;;;;;;;;;;5133997;27;20042;-79
2021/01/21 14:21:39;;;;;;;19.10;3.25;;;;;;;;;;5133670;27;20498;-79
2021/01/21 14:24:43;;;;;;;13.07;3.10;;;;;;;;;;5133683;27;20035;-79
2021/01/21 14:27:47;;;;;;;11.35;3.70;;;;;;;;;;5133444;27;20046;-78
2021/01/21 14:30:52;;;;;;;14.88;2.88;;;;;;;;;;5133967;27;20027;-76
2021/01/21 14:33:56;;;;;;;13.55;3.25;;;;;;;;;;5132922;27;20035;-78
2021/01/21 14:37:00;;;;;;;18.02;3.67;;;;;;;;;;5133137;27;20035;-77
2021/01/21 14:40:08;;;;;;;19.42;3.55;;;;;;;;;;5133679;27;20054;-79
2021/01/21 14:43:14;;;;;;;12.07;2.83;;;;;;;;;;5121071;27;20035;-78
2021/01/21 14:46:21;;;;;;;10.50;2.67;;;;;;;;;;5133560;27;20046;-79
2021/01/21 14:49:25;;;;;;;18.30;3.92;;;;;;;;;;5133451;27;20655;-79
2021/01/21 14:52:29;;;;;;;15.65;3.40;;;;;;;;;;5133260;27;20039;-79
2021/01/21 14:55:33;;;;;;;14.25;3.05;;;;;;;;;;5120288;27;20031;-79
2021/01/21 14:58:38;;;;;;;15.40;3.28;;;;;;;;;;5133049;27;20050;-77
2021/01/21 15:01:43;;;;;;;23.35;5.70;;;;;;;;;;5133129;27;20038;-80
2021/01/21 15:04:47;;;;;;;14.90;2.78;;;;;;;;;;5133349;27;20477;-80
2021/01/21 15:07:52;;;;;;;18.42;4.70;;;;;;;;;;5133254;27;20387;-79
2021/01/21 15:11:02;;;;;;;17.27;4.28;;;;;;;;;;5132972;27;20051;-74
2021/01/21 15:14:06;;;;;;;25.02;7.05;;;;;;;;;;5120298;27;20043;-76
2021/01/21 15:17:11;;;;;;;18.50;3.13;;;;;;;;;;5132807;27;20031;-79
2021/01/21 15:20:15;;;;;;;13.20;3.05;;;;;;;;;;5120629;27;20046;-78
2021/01/21 15:23:20;;;;;;;11.48;3.00;;;;;;;;;;5133657;27;20027;-78
2021/01/21 15:26:25;;;;;;;13.70;4.00;;;;;;;;;;5132678;27;20051;-77
2021/01/21 15:29:29;;;;;;;19.80;4.80;;;;;;;;;;5132900;27;20035;-79
2021/01/21 15:32:33;;;;;;;18.38;7.63;;;;;;;;;;5132646;27;20039;-74
2021/01/21 15:35:38;;;;;;;12.70;3.92;;;;;;;;;;5132378;27;20031;-76
2021/01/21 15:38:42;;;;;;;12.98;3.75;;;;;;;;;;5132382;27;20065;-74
2021/01/21 15:41:47;;;;;;;14.90;4.10;;;;;;;;;;5132288;27;20043;-72
2021/01/21 15:44:51;;;;;;;14.43;4.70;;;;;;;;;;5119530;27;20118;-77
2021/01/21 15:47:56;;;;;;;17.05;5.43;;;;;;;;;;5132061;27;20514;-72
2021/01/21 15:51:01;;;;;;;13.85;3.33;;;;;;;;;;5132224;27;20031;-73
2021/01/21 15:54:05;;;;;;;14.95;3.75;;;;;;;;;;5132146;27;20038;-77
2021/01/21 15:57:10;;;;;;;15.50;4.45;;;;;;;;;;5131756;27;20506;-73
2021/01/21 16:00:14;;;;;;;15.25;3.97;;;;;;;;;;5131508;28;20044;-70
2021/01/21 16:03:18;;;;;;;15.00;4.35;;;;;;;;;;5131982;28;20035;-70
2021/01/21 16:06:23;;;;;;;21.88;5.75;;;;;;;;;;5132033;28;20055;-70
2021/01/21 16:09:27;;;;;;;14.80;5.05;;;;;;;;;;5131712;28;20416;-71
2021/01/21 16:12:32;;;;;;;14.55;6.05;;;;;;;;;;5131854;28;20042;-70
2021/01/21 16:15:36;;;;;;;18.10;6.22;;;;;;;;;;5132206;28;20391;-70
2021/01/21 16:18:42;;;;;;;23.77;7.75;;;;;;;;;;5131506;28;20056;-71
2021/01/21 16:21:47;;;;;;;23.23;8.70;;;;;;;;;;5131753;28;20043;-72
2021/01/21 16:24:51;;;;;;;25.05;8.43;;;;;;;;;;5131842;28;20049;-70
2021/01/21 16:27:57;;;;;;;22.40;10.77;;;;;;;;;;5131578;28;20060;-70
2021/01/21 16:31:01;;;;;;;17.38;8.40;;;;;;;;;;5131937;28;20054;-72
2021/01/21 16:34:05;;;;;;;14.45;7.32;;;;;;;;;;5131594;28;20031;-73
2021/01/21 16:37:10;;;;;;;18.85;6.78;;;;;;;;;;5131771;28;20047;-72
2021/01/21 16:40:15;;;;;;;26.20;9.20;;;;;;;;;;5131599;28;20051;-73
2021/01/21 16:43:20;;;;;;;26.48;9.77;;;;;;;;;;5118959;28;20031;-72
2021/01/21 16:46:24;;;;;;;22.75;9.68;;;;;;;;;;5131652;28;20042;-73
2021/01/21 16:49:29;;;;;;;30.48;10.82;;;;;;;;;;5119100;28;20034;-74
2021/01/21 16:52:33;;;;;;;30.15;12.30;;;;;;;;;;5131759;28;20042;-72
2021/01/21 16:55:37;;;;;;;20.92;11.30;;;;;;;;;;5131648;28;20046;-76
2021/01/21 16:58:42;;;;;;;44.88;22.33;;;;;;;;;;5133955;27;20058;-72
2021/01/21 17:01:46;;;;;;;27.90;12.88;;;;;;;;;;5134052;27;20050;-72
2021/01/21 17:04:51;;;;;;;25.17;10.82;;;;;;;;;;5134678;27;20034;-73
2021/01/21 17:07:56;;;;;;;29.58;18.23;;;;;;;;;;5134917;27;20049;-75
2021/01/21 17:11:00;;;;;;;29.00;11.27;;;;;;;;;;5134572;27;20422;-75
2021/01/21 17:14:05;;;;;;;31.83;12.57;;;;;;;;;;5134988;27;20046;-72
2021/01/21 17:17:09;;;;;;;28.90;11.07;;;;;;;;;;5134907;27;20046;-71
2021/01/21 17:20:17;;;;;;;26.50;11.35;;;;;;;;;;5122040;27;20398;-71
2021/01/21 17:23:21;;;;;;;21.77;9.45;;;;;;;;;;5134870;27;20046;-72
2021/01/21 17:26:25;;;;;;;23.98;10.38;;;;;;;;;;5134649;27;20514;-72
2021/01/21 17:29:30;;;;;;;22.65;10.25;;;;;;;;;;5134871;27;20047;-72
2021/01/21 17:32:34;;;;;;;24.35;11.00;;;;;;;;;;5134771;27;20524;-75
2021/01/21 17:35:39;;;;;;;34.95;14.45;;;;;;;;;;5134524;27;20042;-73
2021/01/21 17:38:43;;;;;;;27.25;13.90;;;;;;;;;;5121569;27;20066;-77
2021/01/21 17:41:47;;;;;;;30.92;13.18;;;;;;;;;;5134410;27;20401;-75
2021/01/21 17:44:54;;;;;;;28.80;13.32;;;;;;;;;;5134378;27;20042;-76
2021/01/21 17:47:58;;;;;;;27.98;11.95;;;;;;;;;;5134168;27;20034;-75
2021/01/21 17:51:03;;;;;;;29.92;11.20;;;;;;;;;;5134076;27;20395;-72
2021/01/21 17:54:07;;;;;;;42.78;16.60;;;;;;;;;;5133901;27;20046;-76
2021/01/21 17:57:12;;;;;;;30.90;14.38;;;;;;;;;;5133489;27;20503;-73
2021/01/21 18:00:18;;;;;;;32.22;11.25;;;;;;;;;;5133618;27;20054;-72
2021/01/21 18:03:22;;;;;;;27.42;10.88;;;;;;;;;;5133065;27;20043;-76
2021/01/21 18:06:30;;;;;;;25.75;12.15;;;;;;;;;;5133537;27;20050;-73
2021/01/21 18:09:35;;;;;;;23.95;12.07;;;;;;;;;;5133353;27;20046;-71
2021/01/21 18:12:40;;;;;;;36.15;13.55;;;;;;;;;;5121050;27;20497;-79
2021/01/21 18:15:46;;;;;;;27.10;11.40;;;;;;;;;;5133838;27;20046;-79
2021/01/21 18:18:51;;;;;;;31.25;17.27;;;;;;;;;;5133574;27;20394;-77
2021/01/21 18:21:55;;;;;;;67.43;37.05;;;;;;;;;;5121112;27;20081;-79
2021/01/21 18:24:59;;;;;;;29.05;11.82;;;;;;;;;;5133406;27;20042;-79
2021/01/21 18:28:04;;;;;;;23.80;8.60;;;;;;;;;;5133801;27;20050;-79
2021/01/21 18:31:08;;;;;;;18.83;7.90;;;;;;;;;;5119454;27;20473;-79